createdAt,value
2023-03-18T00:05:45.100Z,4.23
2023-03-18T00:11:39.250Z,3.80
2023-03-18T00:17:32.814Z,3.87
2023-03-18T00:23:28.293Z,3.17
2023-03-18T00:29:21.260Z,3.37
2023-03-18T00:35:14.261Z,2.93
2023-03-18T00:41:12.648Z,2.80
2023-03-18T00:47:06.263Z,3.33
2023-03-18T00:53:00.665Z,3.03
2023-03-18T00:58:57.594Z,3.00
2023-03-18T01:04:51.452Z,3.13
2023-03-18T01:10:44.492Z,3.30
2023-03-18T01:16:38.870Z,3.27
2023-03-18T01:22:31.916Z,2.83
2023-03-18T01:28:27.667Z,2.77
2023-03-18T01:34:22.590Z,3.07
2023-03-18T01:40:18.993Z,2.93
2023-03-18T01:46:37.107Z,3.23
2023-03-18T01:52:33.874Z,2.83
2023-03-18T01:58:31.551Z,2.53
2023-03-18T02:04:29.634Z,2.90
2023-03-18T02:10:27.398Z,2.70
2023-03-18T02:16:27.316Z,2.77
2023-03-18T02:22:29.675Z,3.00
2023-03-18T02:28:29.675Z,3.00
2023-03-18T02:34:26.847Z,3.00
2023-03-18T02:40:24.630Z,2.40
2023-03-18T02:46:36.307Z,3.10
2023-03-18T02:52:29.290Z,2.83
2023-03-18T02:58:22.708Z,2.70
2023-03-18T03:04:24.679Z,2.70
2023-03-18T03:10:18.221Z,3.33
2023-03-18T03:16:14.189Z,4.00
2023-03-18T03:22:09.281Z,2.77
2023-03-18T03:28:02.901Z,3.13
2023-03-18T03:33:56.250Z,3.20
2023-03-18T03:39:50.619Z,3.20
2023-03-18T03:45:44.974Z,4.07
2023-03-18T03:51:38.270Z,3.60
2023-03-18T03:57:32.689Z,2.80
2023-03-18T04:03:26.249Z,3.57
2023-03-18T04:09:19.445Z,2.97
2023-03-18T04:15:15.711Z,2.93
2023-03-18T04:21:10.620Z,4.00
2023-03-18T04:27:11.962Z,3.53
2023-03-18T04:33:06.838Z,3.83
2023-03-18T04:39:00.380Z,3.70
2023-03-18T04:44:54.445Z,4.10
2023-03-18T04:50:49.533Z,4.00
2023-03-18T04:56:48.844Z,3.97
2023-03-18T05:02:42.625Z,4.30
2023-03-18T05:08:37.392Z,4.23
2023-03-18T05:14:31.569Z,4.50
2023-03-18T05:20:26.191Z,5.07
2023-03-18T05:26:21.443Z,5.10
2023-03-18T05:32:17.015Z,4.83
2023-03-18T05:38:12.923Z,5.83
2023-03-18T05:44:08.623Z,6.47
2023-03-18T05:50:04.586Z,5.90
2023-03-18T05:56:00.379Z,5.50
2023-03-18T06:01:55.468Z,6.50
2023-03-18T06:07:49.456Z,6.73
2023-03-18T06:13:43.361Z,6.73
2023-03-18T06:19:38.966Z,6.30
2023-03-18T06:25:32.773Z,6.87
2023-03-18T06:31:26.898Z,7.60
2023-03-18T06:37:21.627Z,7.23
2023-03-18T06:43:15.923Z,7.23
2023-03-18T06:49:11.623Z,8.07
2023-03-18T06:55:12.983Z,8.10
2023-03-18T07:01:09.777Z,7.37
2023-03-18T07:07:07.599Z,8.93
2023-03-18T07:13:04.705Z,8.70
2023-03-18T07:18:58.967Z,8.03
2023-03-18T07:24:52.883Z,8.63
2023-03-18T07:30:47.878Z,8.40
2023-03-18T07:36:41.381Z,9.10
2023-03-18T07:42:34.591Z,8.07
2023-03-18T07:48:29.381Z,8.13
2023-03-18T07:54:22.313Z,8.57
2023-03-18T08:00:18.039Z,8.77
2023-03-18T08:06:12.570Z,8.53
2023-03-18T08:12:06.464Z,9.13
2023-03-18T08:17:59.470Z,9.00
2023-03-18T08:23:54.233Z,8.60
2023-03-18T08:29:47.770Z,8.87
2023-03-18T08:35:42.940Z,9.93
2023-03-18T08:41:37.832Z,8.30
2023-03-18T08:47:31.188Z,8.40
2023-03-18T08:53:24.569Z,9.23
2023-03-18T08:59:18.877Z,8.80
2023-03-18T09:05:11.965Z,8.63
2023-03-18T09:11:04.958Z,8.77
2023-03-18T09:17:00.249Z,9.30
2023-03-18T09:22:53.959Z,9.10
2023-03-18T09:28:47.467Z,8.93
2023-03-18T09:34:41.802Z,11.50
2023-03-18T09:40:38.276Z,8.57
2023-03-18T09:46:43.237Z,8.87
2023-03-18T09:52:43.479Z,9.43
2023-03-18T09:58:48.030Z,8.70
2023-03-18T10:04:45.281Z,8.53
2023-03-18T10:10:46.222Z,7.60
2023-03-18T10:16:51.473Z,7.67
2023-03-18T10:23:07.682Z,8.27
2023-03-18T10:29:14.504Z,7.07
2023-03-18T10:35:19.681Z,6.70
2023-03-18T10:41:21.171Z,6.70
2023-03-18T10:47:21.129Z,6.57
2023-03-18T10:53:20.730Z,6.53
2023-03-18T10:59:16.950Z,7.83
2023-03-18T11:05:23.294Z,8.03
2023-03-18T11:11:20.939Z,7.57
2023-03-18T11:17:22.361Z,7.10
2023-03-18T11:23:20.835Z,6.90
2023-03-18T11:29:17.771Z,7.97
2023-03-18T11:35:21.002Z,8.43
2023-03-18T11:41:18.391Z,8.03
2023-03-18T11:47:16.267Z,8.27
2023-03-18T11:53:14.732Z,8.23
2023-03-18T11:59:36.969Z,7.33
2023-03-18T12:05:53.586Z,6.47
2023-03-18T12:11:59.436Z,6.53
2023-03-18T12:18:04.310Z,7.07
2023-03-18T12:24:09.530Z,7.10
2023-03-18T12:30:15.383Z,13.00
2023-03-18T12:36:19.976Z,4.90
2023-03-18T12:42:17.800Z,4.07
2023-03-18T12:48:15.977Z,4.20
2023-03-18T12:54:17.668Z,3.10
2023-03-18T13:00:23.709Z,4.30
2023-03-18T13:06:22.046Z,3.20
2023-03-18T13:12:20.604Z,3.93
2023-03-18T13:18:18.622Z,5.73
2023-03-18T13:24:39.222Z,4.63
2023-03-18T13:30:50.313Z,3.40
2023-03-18T13:37:20.757Z,3.67
2023-03-18T13:43:17.776Z,4.30
2023-03-18T13:49:21.717Z,4.20
2023-03-18T13:55:26.920Z,5.73
2023-03-18T14:01:33.231Z,5.47
2023-03-18T14:07:28.953Z,6.83
2023-03-18T14:13:29.939Z,6.50
2023-03-18T14:19:31.848Z,8.57
2023-03-18T14:25:41.427Z,7.57
2023-03-18T14:31:52.808Z,6.30
2023-03-18T14:38:01.852Z,5.50
2023-03-18T14:44:09.262Z,5.70
2023-03-18T14:50:06.839Z,9.27
2023-03-18T14:56:01.317Z,6.50
2023-03-18T15:01:57.666Z,6.07
2023-03-18T15:07:54.136Z,6.60
2023-03-18T15:13:47.761Z,5.60
2023-03-18T15:19:42.577Z,6.43
2023-03-18T15:25:37.482Z,5.30
2023-03-18T15:31:32.308Z,7.53
2023-03-18T15:37:40.628Z,6.77
2023-03-18T15:43:40.390Z,5.90
2023-03-18T15:49:33.788Z,5.30
2023-03-18T15:55:30.651Z,4.53
2023-03-18T16:01:23.699Z,5.00
2023-03-18T16:07:20.113Z,4.50
2023-03-18T16:13:19.558Z,4.80
2023-03-18T16:19:17.050Z,6.33
2023-03-18T16:25:11.920Z,5.40
2023-03-18T16:31:07.063Z,4.83
2023-03-18T16:37:00.222Z,5.43
2023-03-18T16:42:53.790Z,5.67
2023-03-18T16:48:50.343Z,5.20
2023-03-18T16:54:44.250Z,6.90
2023-03-18T17:00:38.129Z,5.00
2023-03-18T17:06:32.464Z,5.60
2023-03-18T17:12:26.201Z,4.93
2023-03-18T17:18:21.710Z,5.53
2023-03-18T17:24:16.545Z,5.20
2023-03-18T17:30:19.004Z,5.40
2023-03-18T17:36:12.835Z,5.30
2023-03-18T17:42:16.696Z,5.50
2023-03-18T17:48:18.267Z,5.37
2023-03-18T17:54:13.819Z,5.17
2023-03-18T18:00:16.420Z,5.67
2023-03-18T18:06:16.936Z,7.40
2023-03-18T18:12:16.434Z,10.27
2023-03-18T18:18:20.114Z,11.27
2023-03-18T18:24:17.183Z,10.70
2023-03-18T18:30:15.319Z,11.63
2023-03-18T18:36:11.664Z,11.03
2023-03-18T18:42:05.484Z,13.10
2023-03-18T18:47:58.501Z,14.07
2023-03-18T18:53:54.448Z,16.10
2023-03-18T18:59:47.476Z,12.17
2023-03-18T19:05:40.953Z,10.13
2023-03-18T19:11:35.737Z,15.20
2023-03-18T19:17:29.393Z,18.60
2023-03-18T19:23:27.864Z,12.77
2023-03-18T19:29:22.819Z,12.77
2023-03-18T19:35:16.517Z,10.33
2023-03-18T19:41:10.031Z,10.03
2023-03-18T19:47:05.440Z,8.63
2023-03-18T19:53:00.061Z,9.63
2023-03-18T19:58:54.842Z,9.37
2023-03-18T20:04:50.058Z,12.13
2023-03-18T20:10:44.429Z,12.47
2023-03-18T20:16:37.987Z,10.70
2023-03-18T20:22:35.566Z,10.00
2023-03-18T20:28:30.223Z,8.87
2023-03-18T20:34:24.716Z,8.43
2023-03-18T20:40:25.124Z,9.90
2023-03-18T20:46:19.965Z,12.80
2023-03-18T20:52:23.939Z,9.50
2023-03-18T20:58:20.778Z,9.77
2023-03-18T21:04:14.800Z,8.20
2023-03-18T21:10:09.777Z,7.90
2023-03-18T21:16:05.554Z,7.60
2023-03-18T21:21:59.838Z,8.33
2023-03-18T21:27:53.932Z,9.13
2023-03-18T21:33:49.103Z,7.47
2023-03-18T21:39:42.076Z,9.30
2023-03-18T21:45:35.187Z,7.37
2023-03-18T21:51:39.143Z,6.60
2023-03-18T21:57:33.757Z,6.77
2023-03-18T22:03:30.859Z,6.30
2023-03-18T22:09:27.021Z,7.20
2023-03-18T22:15:38.699Z,11.10
2023-03-18T22:21:32.052Z,9.23
2023-03-18T22:27:28.753Z,8.90
2023-03-18T22:33:25.208Z,8.80
2023-03-18T22:39:18.149Z,8.80
2023-03-18T22:45:22.560Z,9.30
2023-03-18T22:51:23.429Z,8.03
2023-03-18T22:57:22.103Z,8.67
2023-03-18T23:03:19.847Z,8.80
2023-03-18T23:09:13.319Z,14.17
2023-03-18T23:15:08.640Z,10.30
2023-03-18T23:21:02.999Z,10.10
2023-03-18T23:26:56.496Z,8.83
2023-03-18T23:32:49.960Z,8.70
2023-03-18T23:38:44.265Z,7.13
2023-03-18T23:44:37.678Z,8.43
2023-03-18T23:50:31.334Z,7.10
2023-03-18T23:56:26.520Z,7.10
